EDLPEDVE

Guest
Details From EDLP - Paderborn Lippstadt
To EDVE - Braunschweig
Flight Number -
Tags Generated
Created
Modified
Stats Distance 84 nm / 155 km
Max Altitude 0 ft / 0 m
Waypoints 2
Social Downloads 1
Likes 0
Share VATSIM

Download

Looking for another format? Having issues loading an existing format? Contact us
Advertisement - Login to hide

Notes

Generated

Route

EDLP EDVE

ID Type Via Altitude Latitude Longitude Leg Dist Tot Dist Heading (true) Name
O EDLP APT - 0 ft / 0 m 51.60888˚ 8.60309˚ - 0 nm - -
O EDVE APT - 0 ft / 0 m 52.31741˚ 10.54852˚ 83 nm 83 nm 59° / 60° Braunschweig-Wolfsburg

Altitude Profile

Advertisement - Login to hide

EDLP

Details ICAO EDLP (PAD)
Name Paderborn Lippstadt
Region Germany - Civil
Timezone Europe/Berlin (UTC+1.0)
Stats Elevation 699 ft / 213 m (AMSL)
Location 51.614166° 8.616336°
Runways 1
Magnetic Variation 2.357° E

METAR

EDLP 140620Z 25012KT 7000 -SNRA BKN007 01/00 Q0988

Decode

TAF

TAF TAF EDLP 140500Z 1406/1506 23015G25KT 9999 BKN030 TEMPO 1406/1414 25020G35KT PROB40 TEMPO 1406/1410 3000 SHSNRA BKN011CB BECMG 1414/1417 21011KT BECMG 1423/1501 18006KT TEMPO 1502/1506 25011KT 2500 SHSNRA BKN012TCU

Decode

Departure Runways

ID Width Length Bearing (true) Bearing (mag) Surface Threshold Offset Overrun Length
06 148 ft / 45 m 7,136 ft / 2,175 m 57.28° 54.92° Asphalt 0 ft / 0 m 1,066 ft / 325 m
24 148 ft / 45 m 7,136 ft / 2,175 m 237.30° 234.94° Asphalt 0 ft / 0 m 397 ft / 121 m

EDVE

Details ICAO EDVE (BWE)
Name Braunschweig-Wolfsburg
Region Germany - Civil
Timezone Europe/Berlin (UTC+1.0)
Stats Elevation 295 ft / 90 m (AMSL)
Location 52.318435° 10.554742°
Runways 2
Magnetic Variation 2.939° E

METAR

EDVE 140620Z 24010KT 9999 FEW028 SCT060 OVC110 04/03 Q0987

Decode

TAF

Not found

Destination Runways

ID Width Length Bearing (true) Bearing (mag) Surface Threshold Offset Overrun Length
08 98 ft / 30 m 5,496 ft / 1,675 m 84.98° 82.04° Asphalt 984 ft / 300 m 0 ft / 0 m
08R 98 ft / 30 m 2,950 ft / 899 m 84.56° 81.62° Grass 0 ft / 0 m 0 ft / 0 m
26 98 ft / 30 m 5,496 ft / 1,675 m 265.00° 262.06° Asphalt 591 ft / 180 m 190 ft / 58 m
26L 98 ft / 30 m 2,950 ft / 899 m 264.57° 261.63° Grass 0 ft / 0 m 0 ft / 0 m

Approach Navaids

Runway Type Ident Frequency Range Bearing (true) Bearing (mag) Slope Elevation
26 Localiser BWG 108.50 MHz 18 nm / 33 km 264.89° 261.95° - 295 ft / 90 m (AMSL)
26 Glidescope BWG 108.50 MHz 10 nm / 19 km 265.00° 262.06° 3.50° 295 ft / 90 m (AMSL)